Time;durP1;ratioP1;P1;durP2;ratioP2;P2;SDS_P1;SDS_P2;PMS_P1;PMS_P2;Temp;Humidity;BMP_temperature;BMP_pressure;BME280_temperature;BME280_humidity;BME280_pressure;Samples;Min_cycle;Max_cycle;Signal;HPM_P1;HPM_P2
2021/01/31 00:01:33;;;;;;;1.35;0.90;;;19.30;46.70;;;;;;5011301;28;20115;-39
2021/01/31 00:04:00;;;;;;;1.30;1.00;;;19.30;46.70;;;;;;5012321;28;20050;-39
2021/01/31 00:06:27;;;;;;;1.30;0.82;;;19.30;46.70;;;;;;5007649;28;20137;-39
2021/01/31 00:08:53;;;;;;;1.25;0.70;;;19.30;46.70;;;;;;5002618;28;20080;-39
2021/01/31 00:11:20;;;;;;;1.23;0.90;;;19.30;46.70;;;;;;5008178;28;20088;-39
2021/01/31 00:13:47;;;;;;;2.08;1.00;;;19.40;46.70;;;;;;5005896;28;20050;-40
2021/01/31 00:16:14;;;;;;;1.38;0.95;;;19.30;46.70;;;;;;4999758;28;20054;-39
2021/01/31 00:18:41;;;;;;;1.42;0.90;;;19.30;46.70;;;;;;5006721;28;20042;-39
2021/01/31 00:21:08;;;;;;;1.35;0.90;;;19.30;46.70;;;;;;5002450;28;20104;-39
2021/01/31 00:23:34;;;;;;;1.20;0.70;;;19.30;46.70;;;;;;5007936;28;20509;-40
2021/01/31 00:26:18;;;;;;;1.25;0.90;;;19.30;46.70;;;;;;5006331;28;20505;-40
2021/01/31 00:28:45;;;;;;;1.10;0.80;;;19.30;46.70;;;;;;5002736;28;20054;-40
2021/01/31 00:31:11;;;;;;;1.40;1.10;;;19.30;46.60;;;;;;5010673;28;20049;-39
2021/01/31 00:33:38;;;;;;;1.10;0.90;;;19.30;46.70;;;;;;5003765;28;20046;-39
2021/01/31 00:36:05;;;;;;;1.10;0.98;;;19.30;46.60;;;;;;5002033;28;20572;-40
2021/01/31 00:38:31;;;;;;;1.48;1.05;;;19.30;46.60;;;;;;5008863;28;20073;-40
2021/01/31 00:40:58;;;;;;;1.33;0.82;;;19.30;46.60;;;;;;5005250;28;20046;-39
2021/01/31 00:43:25;;;;;;;1.17;1.00;;;19.30;46.60;;;;;;5005494;28;20077;-40
2021/01/31 00:45:53;;;;;;;1.88;1.27;;;19.30;46.60;;;;;;5003319;28;20552;-39
2021/01/31 00:48:19;;;;;;;1.17;0.93;;;19.30;46.60;;;;;;5005956;28;20044;-39
2021/01/31 00:50:46;;;;;;;1.63;1.15;;;19.30;46.60;;;;;;5003876;28;20056;-40
2021/01/31 00:53:13;;;;;;;1.50;1.00;;;19.30;46.60;;;;;;5003168;28;20052;-40
2021/01/31 00:55:40;;;;;;;0.98;0.88;;;19.30;46.60;;;;;;5003315;28;20400;-39
2021/01/31 00:58:06;;;;;;;1.15;0.98;;;19.30;46.60;;;;;;5006091;28;20042;-40
2021/01/31 01:00:39;;;;;;;1.42;1.00;;;19.30;46.60;;;;;;5003143;28;20211;-39
2021/01/31 01:03:07;;;;;;;1.10;0.95;;;19.30;46.60;;;;;;5005847;28;20061;-40
2021/01/31 01:05:34;;;;;;;2.20;1.25;;;19.30;46.60;;;;;;5008807;28;20045;-40
2021/01/31 01:08:01;;;;;;;2.30;1.00;;;19.30;46.60;;;;;;5003208;28;20498;-39
2021/01/31 01:10:35;;;;;;;1.60;1.00;;;19.30;46.60;;;;;;5004029;28;20065;-40
2021/01/31 01:13:04;;;;;;;1.73;1.10;;;19.30;46.60;;;;;;5004897;28;20176;-40
2021/01/31 01:15:32;;;;;;;1.10;0.77;;;19.30;46.60;;;;;;5006611;28;20095;-40
2021/01/31 01:17:59;;;;;;;1.08;0.90;;;19.30;46.60;;;;;;5008974;28;20054;-40
2021/01/31 01:20:27;;;;;;;1.52;1.02;;;19.30;46.60;;;;;;5009596;28;20050;-39
2021/01/31 01:22:56;;;;;;;1.10;0.93;;;19.30;46.60;;;;;;5003082;28;20046;-39
2021/01/31 01:25:24;;;;;;;1.80;1.27;;;19.30;46.60;;;;;;4999884;28;20042;-39
2021/01/31 01:27:51;;;;;;;1.02;0.90;;;19.30;46.60;;;;;;5017289;28;20093;-39
2021/01/31 01:30:20;;;;;;;1.27;0.90;;;19.30;46.60;;;;;;5006114;28;20137;-39
2021/01/31 01:32:49;;;;;;;1.98;0.90;;;19.30;46.60;;;;;;5007756;28;20077;-39
2021/01/31 01:35:16;;;;;;;1.70;0.85;;;19.30;46.50;;;;;;5002185;28;20116;-39
2021/01/31 01:37:43;;;;;;;1.83;1.00;;;19.30;46.60;;;;;;5007566;28;20049;-40
2021/01/31 01:40:36;;;;;;;0.70;0.70;;;19.30;46.60;;;;;;5005805;28;20398;-39
2021/01/31 01:43:04;;;;;;;1.65;1.10;;;19.30;46.50;;;;;;5006473;28;20096;-39
2021/01/31 01:45:31;;;;;;;0.98;0.80;;;19.30;46.50;;;;;;5009525;28;20073;-39
2021/01/31 01:48:06;;;;;;;1.83;1.10;;;19.30;46.50;;;;;;5009322;28;20046;-39
2021/01/31 01:50:52;;;;;;;;;;;19.30;46.60;;;;;;5009804;28;20041;-40
2021/01/31 01:53:21;;;;;;;1.60;0.95;;;19.30;46.50;;;;;;5002101;28;19921;-39
2021/01/31 01:56:08;;;;;;;1.42;1.00;;;19.30;46.50;;;;;;5009028;28;20042;-40
2021/01/31 01:58:34;;;;;;;1.88;1.30;;;19.30;46.60;;;;;;5010012;28;20050;-40
2021/01/31 02:01:02;;;;;;;1.30;1.10;;;19.30;46.60;;;;;;5009120;28;20046;-39
2021/01/31 02:03:40;;;;;;;1.48;0.95;;;19.30;46.60;;;;;;5009532;28;20453;-39
2021/01/31 02:06:26;;;;;;;1.17;1.00;;;19.30;46.60;;;;;;5009658;28;20120;-39
2021/01/31 02:08:59;;;;;;;1.95;1.20;;;19.30;46.50;;;;;;5009088;28;20080;-39
2021/01/31 02:11:27;;;;;;;1.03;0.90;;;19.30;46.50;;;;;;5007876;28;20391;-39
2021/01/31 02:14:05;;;;;;;1.38;1.27;;;19.30;46.50;;;;;;5010600;28;20404;-39
2021/01/31 02:16:35;;;;;;;1.63;1.00;;;19.30;46.60;;;;;;5013148;28;20041;-39
2021/01/31 02:19:07;;;;;;;1.60;1.30;;;19.30;46.50;;;;;;5012833;28;20524;-39
2021/01/31 02:21:50;;;;;;;2.38;1.10;;;19.20;46.40;;;;;;5000202;28;20101;-40
2021/01/31 02:24:32;;;;;;;1.08;0.82;;;19.30;46.50;;;;;;5002743;28;20054;-39
2021/01/31 02:27:06;;;;;;;1.30;0.90;;;19.30;46.50;;;;;;5005145;28;20500;-39
2021/01/31 02:30:06;;;;;;;1.25;0.98;;;19.30;46.50;;;;;;5006867;28;20463;-39
2021/01/31 02:33:10;;;;;;;1.23;1.10;;;19.30;46.50;;;;;;5006081;28;20125;-39
2021/01/31 02:35:40;;;;;;;1.75;1.13;;;19.20;46.40;;;;;;5004770;28;20127;-39
2021/01/31 02:38:23;;;;;;;1.55;1.00;;;19.20;46.40;;;;;;5004075;28;20081;-39
2021/01/31 02:41:04;;;;;;;1.67;1.02;;;19.20;46.40;;;;;;5004996;28;20049;-40
2021/01/31 02:43:51;;;;;;;1.27;1.00;;;19.20;46.40;;;;;;5005090;28;20042;-39
2021/01/31 02:46:25;;;;;;;1.92;1.15;;;19.30;46.50;;;;;;5000991;28;20774;-40
2021/01/31 02:49:30;;;;;;;2.63;1.30;;;19.30;46.50;;;;;;5014350;28;20104;-39
2021/01/31 02:52:13;;;;;;;1.80;1.13;;;19.20;46.40;;;;;;5010408;28;20046;-39
2021/01/31 02:55:08;;;;;;;1.70;1.25;;;19.20;46.40;;;;;;5011250;28;20046;-39
2021/01/31 02:58:06;;;;;;;1.38;1.08;;;19.20;46.40;;;;;;5011216;28;20046;-39
2021/01/31 03:01:07;;;;;;;1.10;0.98;;;19.20;46.30;;;;;;5007224;28;20041;-39
2021/01/31 03:03:45;;;;;;;1.83;1.10;;;19.20;46.30;;;;;;5001493;28;20459;-39
2021/01/31 03:06:18;;;;;;;1.70;1.10;;;19.20;46.40;;;;;;5010947;28;20046;-39
2021/01/31 03:08:54;;;;;;;1.67;1.05;;;19.20;46.30;;;;;;5010274;28;20712;-39
2021/01/31 03:11:37;;;;;;;2.03;1.42;;;19.20;46.30;;;;;;5011218;28;20191;-40
2021/01/31 03:14:19;;;;;;;1.45;0.93;;;19.20;46.30;;;;;;5003077;28;20049;-40
2021/01/31 03:16:55;;;;;;;1.15;1.00;;;19.20;46.30;;;;;;5009424;28;20494;-39
2021/01/31 03:19:38;;;;;;;1.90;1.38;;;19.20;46.30;;;;;;5009372;28;20107;-39
2021/01/31 03:22:11;;;;;;;1.30;1.10;;;19.20;46.30;;;;;;5010579;28;20142;-39
2021/01/31 03:24:48;;;;;;;2.13;1.33;;;19.20;46.30;;;;;;5009686;28;20045;-39
2021/01/31 03:27:37;;;;;;;1.98;1.20;;;19.20;46.30;;;;;;5010393;28;20181;-40
2021/01/31 03:30:05;;;;;;;2.22;1.25;;;19.20;46.30;;;;;;5005671;28;20128;-40
2021/01/31 03:32:46;;;;;;;2.28;1.58;;;19.20;46.30;;;;;;5007228;28;20128;-39
2021/01/31 03:35:19;;;;;;;2.00;1.45;;;19.20;46.30;;;;;;5005271;28;20041;-39
2021/01/31 03:37:53;;;;;;;2.13;1.25;;;19.20;46.30;;;;;;5007322;28;20056;-40
2021/01/31 03:40:23;;;;;;;1.60;1.17;;;19.20;46.30;;;;;;5009223;28;20550;-39
2021/01/31 03:42:53;;;;;;;1.77;1.23;;;19.20;46.30;;;;;;5012486;28;20054;-39
2021/01/31 03:45:31;;;;;;;1.73;1.52;;;19.20;46.30;;;;;;5015444;28;20051;-39
2021/01/31 03:48:09;;;;;;;2.13;1.50;;;19.20;46.30;;;;;;5012398;28;20046;-41
2021/01/31 03:50:36;;;;;;;2.13;1.17;;;19.20;46.30;;;;;;5007039;28;20070;-39
2021/01/31 03:53:03;;;;;;;1.45;1.00;;;19.20;46.30;;;;;;5011351;28;20144;-40
2021/01/31 03:55:30;;;;;;;2.55;1.40;;;19.20;46.30;;;;;;5012100;28;20096;-40
2021/01/31 03:58:07;;;;;;;2.08;1.35;;;19.20;46.30;;;;;;5011986;28;20089;-40
2021/01/31 04:00:47;;;;;;;1.48;1.27;;;19.20;46.30;;;;;;5007911;28;20050;-40
2021/01/31 04:03:24;;;;;;;1.88;1.50;;;19.20;46.30;;;;;;5005871;28;20110;-39
2021/01/31 04:06:13;;;;;;;1.85;1.30;;;19.20;46.30;;;;;;5007314;28;20058;-39
2021/01/31 04:08:42;;;;;;;1.90;1.33;;;19.20;46.30;;;;;;5009853;28;20041;-39
2021/01/31 04:11:08;;;;;;;2.55;1.50;;;19.20;46.30;;;;;;5009859;28;20108;-39
2021/01/31 04:13:35;;;;;;;2.45;1.55;;;19.20;46.30;;;;;;5011393;28;20676;-39
2021/01/31 04:16:05;;;;;;;2.28;1.70;;;19.20;46.20;;;;;;4993483;28;20552;-39
2021/01/31 04:18:32;;;;;;;1.73;1.30;;;19.20;46.20;;;;;;5011186;28;20061;-41
2021/01/31 04:20:59;;;;;;;1.50;1.23;;;19.20;46.20;;;;;;5007053;28;20068;-39
2021/01/31 04:23:25;;;;;;;1.80;1.20;;;19.20;46.20;;;;;;5011342;28;20506;-39
2021/01/31 04:25:52;;;;;;;2.00;1.25;;;19.20;46.20;;;;;;5010636;28;20466;-40
2021/01/31 04:28:25;;;;;;;2.13;1.25;;;19.20;46.20;;;;;;5010823;28;20427;-40
2021/01/31 04:30:56;;;;;;;1.70;1.20;;;19.20;46.20;;;;;;5010560;28;20065;-40
2021/01/31 04:33:25;;;;;;;1.90;1.60;;;19.20;46.20;;;;;;5004251;28;20070;-40
2021/01/31 04:35:53;;;;;;;1.45;1.20;;;19.20;46.20;;;;;;5009106;28;20085;-39
2021/01/31 04:38:20;;;;;;;1.92;1.35;;;19.20;46.20;;;;;;5009806;28;20499;-39
2021/01/31 04:40:46;;;;;;;2.72;1.65;;;19.20;46.50;;;;;;5010701;28;20042;-39
2021/01/31 04:43:16;;;;;;;1.67;1.27;;;19.20;46.20;;;;;;5010435;28;20064;-40
2021/01/31 04:45:43;;;;;;;1.80;1.25;;;19.20;46.30;;;;;;5009587;28;20058;-40
2021/01/31 04:48:19;;;;;;;1.77;1.38;;;19.20;46.20;;;;;;5009461;28;20104;-39
2021/01/31 04:51:06;;;;;;;1.67;1.40;;;19.20;46.20;;;;;;5020201;28;20065;-39
2021/01/31 04:54:05;;;;;;;1.75;1.40;;;19.20;46.20;;;;;;5010319;28;20046;-40
2021/01/31 04:56:54;;;;;;;2.60;1.50;;;19.20;46.20;;;;;;5011314;28;20069;-39
2021/01/31 04:59:32;;;;;;;2.10;1.60;;;19.20;46.20;;;;;;5004494;28;20041;-40
2021/01/31 05:02:43;;;;;;;2.22;1.48;;;19.20;46.20;;;;;;5011274;28;20096;-42
2021/01/31 05:05:18;;;;;;;2.00;1.42;;;19.20;46.20;;;;;;5008713;28;20045;-39
2021/01/31 05:07:58;;;;;;;2.70;1.70;;;19.20;46.20;;;;;;5005732;28;20046;-39
2021/01/31 05:10:26;;;;;;;2.05;1.40;;;19.20;46.20;;;;;;5006353;28;20121;-39
2021/01/31 05:13:11;;;;;;;1.83;1.55;;;19.20;46.20;;;;;;5009087;28;20077;-40
2021/01/31 05:16:10;;;;;;;2.15;1.40;;;19.20;46.20;;;;;;5006647;28;20073;-39
2021/01/31 05:18:43;;;;;;;2.42;1.65;;;19.20;46.10;;;;;;5006514;28;20456;-39
2021/01/31 05:21:14;;;;;;;1.42;1.23;;;19.20;46.20;;;;;;5006495;28;20042;-40
2021/01/31 05:23:47;;;;;;;1.65;1.42;;;19.20;46.10;;;;;;5009417;28;20050;-40
2021/01/31 05:26:17;;;;;;;1.55;1.35;;;19.20;46.10;;;;;;5010298;28;20054;-43
2021/01/31 05:28:52;;;;;;;1.88;1.30;;;19.20;46.10;;;;;;5009781;28;20050;-40
2021/01/31 05:31:22;;;;;;;2.10;1.40;;;19.20;46.20;;;;;;5008631;28;20489;-39
2021/01/31 05:33:55;;;;;;;2.28;1.67;;;19.20;46.10;;;;;;5010784;28;20065;-40
2021/01/31 05:36:27;;;;;;;1.48;1.25;;;19.20;46.20;;;;;;5005387;28;20129;-39
2021/01/31 05:38:54;;;;;;;1.92;1.40;;;19.20;46.10;;;;;;5010958;28;20133;-39
2021/01/31 05:41:42;;;;;;;2.22;1.67;;;19.20;46.10;;;;;;5010400;28;20050;-39
2021/01/31 05:44:21;;;;;;;2.22;1.55;;;19.20;46.10;;;;;;5006881;28;20096;-39
2021/01/31 05:46:51;;;;;;;2.63;1.50;;;19.20;46.10;;;;;;5010566;28;20042;-39
2021/01/31 05:49:41;;;;;;;2.03;1.75;;;19.20;46.10;;;;;;5009987;28;20564;-39
2021/01/31 05:52:23;;;;;;;2.15;1.50;;;19.10;46.10;;;;;;5013316;28;20077;-40
2021/01/31 05:54:51;;;;;;;3.33;1.88;;;19.20;46.10;;;;;;5014791;28;20053;-40
2021/01/31 05:57:47;;;;;;;2.28;1.50;;;19.20;46.10;;;;;;5012832;28;20128;-39
2021/01/31 06:00:32;;;;;;;3.38;1.67;;;19.20;46.10;;;;;;4995610;28;20140;-39
2021/01/31 06:03:08;;;;;;;3.13;1.92;;;19.20;46.10;;;;;;4992949;28;20097;-40
2021/01/31 06:05:35;;;;;;;2.13;1.45;;;19.10;46.10;;;;;;4996035;28;20078;-40
2021/01/31 06:08:29;;;;;;;2.03;1.60;;;19.20;46.10;;;;;;4993622;28;20054;-39
2021/01/31 06:11:11;;;;;;;2.00;1.40;;;19.10;46.00;;;;;;4996762;28;20058;-40
2021/01/31 06:13:38;;;;;;;2.38;1.63;;;19.10;46.00;;;;;;4991526;28;20282;-39
2021/01/31 06:16:15;;;;;;;2.22;1.65;;;19.10;46.00;;;;;;4993739;28;20089;-40
2021/01/31 06:18:46;;;;;;;2.05;1.67;;;19.10;46.10;;;;;;4997400;28;20050;-39
2021/01/31 06:21:18;;;;;;;2.47;1.73;;;19.10;46.00;;;;;;4998534;28;20121;-40
2021/01/31 06:23:49;;;;;;;2.47;1.60;;;19.10;46.00;;;;;;4992580;28;20458;-39
2021/01/31 06:26:28;;;;;;;2.65;1.63;;;19.10;46.10;;;;;;4994190;28;20058;-40
2021/01/31 06:29:10;;;;;;;2.47;1.50;;;19.10;46.00;;;;;;4993462;28;20054;-40
2021/01/31 06:31:52;;;;;;;2.55;1.67;;;19.10;46.00;;;;;;4995698;28;20134;-39
2021/01/31 06:34:19;;;;;;;2.95;1.90;;;19.10;46.00;;;;;;4994071;28;20125;-39
2021/01/31 06:37:14;;;;;;;2.13;1.52;;;19.10;46.00;;;;;;5002933;28;20463;-39
2021/01/31 06:40:12;;;;;;;1.83;1.70;;;19.10;46.00;;;;;;5008740;28;20056;-41
2021/01/31 06:43:10;;;;;;;1.80;1.48;;;19.10;46.00;;;;;;5008478;28;20069;-39
2021/01/31 06:45:57;;;;;;;2.63;1.90;;;19.10;46.00;;;;;;5009770;28;20050;-39
2021/01/31 06:48:23;;;;;;;2.15;1.73;;;19.10;46.00;;;;;;5003922;28;20050;-39
2021/01/31 06:51:20;;;;;;;2.55;1.70;;;19.10;46.00;;;;;;5010119;28;20096;-39
2021/01/31 06:54:05;;;;;;;2.33;1.50;;;19.10;46.00;;;;;;5009741;28;20100;-39
2021/01/31 06:56:52;;;;;;;1.92;1.55;;;19.10;46.00;;;;;;5013261;28;20096;-39
2021/01/31 06:59:39;;;;;;;2.63;1.60;;;19.10;46.00;;;;;;5011419;28;20050;-39
2021/01/31 07:02:30;;;;;;;2.53;1.73;;;19.10;46.00;;;;;;5012044;28;20054;-39
2021/01/31 07:05:04;;;;;;;2.42;1.58;;;19.10;46.00;;;;;;5008667;28;20050;-39
2021/01/31 07:07:42;;;;;;;2.50;1.95;;;19.10;46.00;;;;;;5010045;28;20408;-40
2021/01/31 07:10:50;;;;;;;2.28;1.80;;;19.10;46.00;;;;;;5005819;28;20057;-39
2021/01/31 07:13:22;;;;;;;1.77;1.40;;;19.10;46.00;;;;;;5005810;28;20046;-40
2021/01/31 07:15:55;;;;;;;2.28;1.55;;;19.10;45.90;;;;;;5012609;28;20053;-39
2021/01/31 07:18:23;;;;;;;1.67;1.50;;;19.10;45.90;;;;;;5011956;28;20072;-41
2021/01/31 07:20:56;;;;;;;2.25;1.60;;;19.10;45.90;;;;;;5008554;28;20049;-39
2021/01/31 07:23:27;;;;;;;2.42;1.80;;;19.10;45.90;;;;;;5003174;28;20043;-39
2021/01/31 07:25:57;;;;;;;2.88;1.73;;;19.10;45.90;;;;;;5004765;28;20267;-39
2021/01/31 07:28:39;;;;;;;2.15;1.55;;;19.10;45.90;;;;;;5011686;28;20062;-40
2021/01/31 07:31:10;;;;;;;2.08;1.48;;;19.10;46.00;;;;;;5006512;28;20050;-39
2021/01/31 07:33:59;;;;;;;2.75;1.77;;;19.10;45.90;;;;;;5008320;28;20129;-40
2021/01/31 07:36:40;;;;;;;2.72;1.95;;;19.10;45.90;;;;;;5006204;28;20069;-39
2021/01/31 07:39:12;;;;;;;2.40;1.85;;;19.10;45.90;;;;;;5007376;28;20042;-39
2021/01/31 07:41:51;;;;;;;1.85;1.63;;;19.10;45.90;;;;;;5006289;28;20566;-39
2021/01/31 07:44:23;;;;;;;2.50;1.90;;;19.10;45.90;;;;;;5008288;28;20046;-39
2021/01/31 07:46:50;;;;;;;2.38;1.67;;;19.10;45.90;;;;;;5009205;28;20054;-39
2021/01/31 07:49:17;;;;;;;2.55;1.90;;;19.10;45.90;;;;;;5004218;28;20086;-39
2021/01/31 07:52:06;;;;;;;2.13;1.40;;;19.10;45.90;;;;;;5000510;28;20135;-39
2021/01/31 07:54:39;;;;;;;2.08;1.65;;;19.10;45.90;;;;;;5004035;28;20045;-40
2021/01/31 07:57:45;;;;;;;2.28;1.58;;;19.10;45.90;;;;;;5003984;28;20046;-40
2021/01/31 08:00:16;;;;;;;2.80;1.80;;;19.10;45.90;;;;;;4979118;28;20070;-40
2021/01/31 08:02:47;;;;;;;2.53;1.80;;;19.10;45.90;;;;;;4990584;28;20434;-40
2021/01/31 08:05:52;;;;;;;3.08;2.33;;;19.10;45.90;;;;;;4973315;28;20216;-39
2021/01/31 08:08:38;;;;;;;2.88;1.83;;;19.10;45.90;;;;;;4984899;28;20046;-40
2021/01/31 08:11:10;;;;;;;2.92;2.20;;;19.10;45.80;;;;;;4989025;28;20085;-39
2021/01/31 08:13:40;;;;;;;1.88;1.65;;;19.10;45.90;;;;;;4988247;28;20046;-40
2021/01/31 08:16:53;;;;;;;2.47;1.80;;;19.10;45.90;;;;;;4988645;28;20149;-39
2021/01/31 08:19:20;;;;;;;2.38;1.65;;;19.10;45.90;;;;;;4989004;28;20046;-39
2021/01/31 08:21:56;;;;;;;2.35;1.70;;;19.10;45.80;;;;;;4987949;28;20557;-39
2021/01/31 08:24:56;;;;;;;2.13;1.60;;;19.10;45.80;;;;;;4972107;28;20051;-39
2021/01/31 08:27:37;;;;;;;2.30;1.98;;;19.10;45.80;;;;;;4989814;28;20105;-39
2021/01/31 08:30:24;;;;;;;1.98;1.58;;;19.10;45.80;;;;;;4988604;28;20058;-39
2021/01/31 08:32:59;;;;;;;2.40;1.70;;;19.10;45.80;;;;;;4990853;28;20062;-40
2021/01/31 08:35:53;;;;;;;2.45;1.90;;;19.10;45.80;;;;;;4985600;28;20042;-39
2021/01/31 08:38:24;;;;;;;2.10;1.67;;;19.10;45.80;;;;;;5013843;28;20138;-40
2021/01/31 08:41:26;;;;;;;2.30;1.85;;;19.10;45.70;;;;;;5026251;28;20103;-39
2021/01/31 08:43:58;;;;;;;2.53;2.13;;;19.10;45.70;;;;;;5019519;28;20440;-40
2021/01/31 08:46:36;;;;;;;3.15;2.00;;;19.10;45.70;;;;;;5026019;28;20049;-40
2021/01/31 08:49:10;;;;;;;2.25;2.05;;;19.10;45.70;;;;;;5017765;28;20107;-41
2021/01/31 08:51:40;;;;;;;2.20;1.85;;;19.10;45.80;;;;;;5028889;28;20041;-39
2021/01/31 08:54:13;;;;;;;2.30;1.95;;;19.10;45.70;;;;;;5022747;28;20488;-39
2021/01/31 08:56:46;;;;;;;3.77;1.97;;;19.10;45.70;;;;;;5023018;28;20080;-41
2021/01/31 08:59:16;;;;;;;2.05;1.63;;;19.10;45.70;;;;;;5021069;28;20284;-39
2021/01/31 09:01:47;;;;;;;2.95;1.90;;;19.10;45.70;;;;;;5021843;28;20037;-39
2021/01/31 09:04:17;;;;;;;2.88;1.98;;;19.10;45.70;;;;;;5022484;28;20053;-40
2021/01/31 09:06:46;;;;;;;2.65;2.00;;;19.10;45.70;;;;;;5019930;28;20110;-41
2021/01/31 09:09:21;;;;;;;2.38;1.60;;;19.10;45.70;;;;;;5026085;28;20041;-40
2021/01/31 09:11:53;;;;;;;3.00;1.90;;;19.10;45.70;;;;;;5021690;28;20042;-39
2021/01/31 09:14:23;;;;;;;2.47;2.13;;;19.10;45.70;;;;;;5021680;28;20046;-40
2021/01/31 09:17:07;;;;;;;2.45;1.90;;;19.10;45.70;;;;;;5019446;28;20095;-40
2021/01/31 09:19:35;;;;;;;2.53;1.70;;;19.10;45.70;;;;;;5019705;28;20096;-39
2021/01/31 09:22:19;;;;;;;3.13;2.00;;;19.10;45.70;;;;;;5022047;28;20116;-39
2021/01/31 09:24:56;;;;;;;2.20;1.73;;;19.10;45.70;;;;;;5024699;28;20099;-40
2021/01/31 09:27:25;;;;;;;2.10;1.80;;;19.10;45.70;;;;;;5018225;28;20081;-39
2021/01/31 09:30:04;;;;;;;2.50;2.00;;;19.10;45.70;;;;;;5028116;28;20452;-40
2021/01/31 09:32:44;;;;;;;2.65;2.25;;;19.20;45.80;;;;;;5017549;28;20532;-40
2021/01/31 09:35:26;;;;;;;2.60;1.98;;;19.10;45.70;;;;;;5026077;28;20129;-42
2021/01/31 09:38:07;;;;;;;2.10;1.85;;;19.10;45.70;;;;;;5023592;28;20131;-39
2021/01/31 09:40:36;;;;;;;2.40;1.92;;;19.10;45.70;;;;;;5018909;28;20084;-40
2021/01/31 09:43:11;;;;;;;2.35;1.83;;;19.10;45.60;;;;;;5015557;28;20049;-39
2021/01/31 09:45:42;;;;;;;2.78;2.10;;;19.10;45.60;;;;;;5025603;28;20076;-40
2021/01/31 09:48:12;;;;;;;2.63;2.00;;;19.10;45.60;;;;;;5016448;28;20390;-41
2021/01/31 09:50:42;;;;;;;2.30;1.90;;;19.10;45.60;;;;;;5022493;28;20045;-39
2021/01/31 09:53:31;;;;;;;3.35;2.00;;;19.10;45.70;;;;;;5020368;28;20501;-39
2021/01/31 09:55:59;;;;;;;2.33;1.85;;;19.10;45.60;;;;;;5020345;28;20092;-39
2021/01/31 09:58:37;;;;;;;2.55;2.03;;;19.10;45.60;;;;;;5024224;28;20037;-39
2021/01/31 10:01:14;;;;;;;2.53;1.95;;;19.10;45.70;;;;;;5015964;28;20100;-39
2021/01/31 10:03:41;;;;;;;2.70;1.83;;;19.10;45.60;;;;;;5026465;28;20045;-40
2021/01/31 10:06:10;;;;;;;2.00;1.67;;;19.10;45.60;;;;;;5016171;28;20054;-39
2021/01/31 10:08:41;;;;;;;3.13;2.13;;;19.10;45.60;;;;;;5021814;28;20459;-39
2021/01/31 10:11:38;;;;;;;2.47;1.98;;;19.10;45.60;;;;;;5019298;28;20096;-39
2021/01/31 10:14:41;;;;;;;2.58;1.92;;;19.10;45.60;;;;;;5017010;28;20057;-39
2021/01/31 10:17:17;;;;;;;2.30;1.70;;;19.10;45.60;;;;;;5019738;28;20041;-39
2021/01/31 10:19:44;;;;;;;2.45;1.90;;;19.10;45.60;;;;;;5019786;28;20088;-39
2021/01/31 10:22:27;;;;;;;2.40;2.03;;;19.10;45.60;;;;;;5023009;28;20050;-41
2021/01/31 10:24:54;;;;;;;2.20;1.67;;;19.10;45.60;;;;;;5026712;28;20448;-39
2021/01/31 10:27:33;;;;;;;1.90;1.60;;;19.10;45.60;;;;;;5019904;28;20049;-40
2021/01/31 10:30:27;;;;;;;2.42;2.03;;;19.10;45.60;;;;;;5020508;28;20143;-40
2021/01/31 10:32:55;;;;;;;2.30;1.90;;;19.10;45.60;;;;;;5021534;28;20403;-39
2021/01/31 10:35:36;;;;;;;2.72;1.85;;;19.10;45.60;;;;;;5016212;28;20096;-39
2021/01/31 10:38:41;;;;;;;2.35;1.90;;;19.10;45.60;;;;;;5021160;28;20140;-39
2021/01/31 10:41:08;;;;;;;;;;;19.10;45.60;;;;;;4975463;28;20042;-39
2021/01/31 10:43:34;;;;;;;2.85;1.90;;;19.10;45.60;;;;;;4983728;28;19934;-39
2021/01/31 10:46:01;;;;;;;2.47;2.10;;;19.10;45.60;;;;;;4984323;28;20063;-39
2021/01/31 10:48:27;;;;;;;2.90;2.17;;;19.10;45.60;;;;;;4982608;28;20050;-39
2021/01/31 10:50:54;;;;;;;2.80;1.95;;;19.10;45.60;;;;;;4970430;28;20145;-39
2021/01/31 10:53:20;;;;;;;2.85;2.22;;;19.10;45.60;;;;;;4980589;28;20148;-39
2021/01/31 10:55:47;;;;;;;3.25;2.10;;;19.10;45.60;;;;;;4985390;28;20114;-39
2021/01/31 10:58:14;;;;;;;3.38;2.25;;;19.10;45.60;;;;;;4984790;28;20125;-39
2021/01/31 11:00:43;;;;;;;2.85;2.00;;;19.20;46.30;;;;;;4986160;28;20057;-39
2021/01/31 11:03:12;;;;;;;2.42;1.95;;;19.10;45.60;;;;;;4981956;28;20042;-40
2021/01/31 11:05:38;;;;;;;2.47;1.92;;;19.10;45.60;;;;;;4987878;28;20101;-39
2021/01/31 11:08:05;;;;;;;2.88;2.15;;;19.10;45.50;;;;;;4974685;28;20054;-39
2021/01/31 11:10:32;;;;;;;2.67;2.20;;;19.10;45.60;;;;;;4986500;28;20051;-39
2021/01/31 11:12:58;;;;;;;2.45;2.03;;;19.10;45.50;;;;;;4986281;28;20137;-43
2021/01/31 11:15:26;;;;;;;2.70;2.10;;;19.10;45.50;;;;;;4985553;28;20050;-39
2021/01/31 11:17:53;;;;;;;2.70;1.98;;;19.10;45.50;;;;;;5023254;28;20045;-39
2021/01/31 11:20:20;;;;;;;3.40;2.35;;;19.10;45.50;;;;;;5022899;28;20093;-39
2021/01/31 11:22:46;;;;;;;2.65;2.35;;;19.10;45.50;;;;;;5024585;28;20507;-39
2021/01/31 11:25:13;;;;;;;3.47;2.28;;;19.10;45.50;;;;;;5018821;28;20100;-39
2021/01/31 11:27:39;;;;;;;2.72;2.05;;;19.10;45.50;;;;;;5029104;28;20085;-39
2021/01/31 11:30:07;;;;;;;2.58;2.08;;;19.10;45.50;;;;;;5031172;28;20493;-39
2021/01/31 11:32:34;;;;;;;2.42;2.00;;;19.10;45.50;;;;;;5018009;28;20140;-39
2021/01/31 11:35:00;;;;;;;2.70;2.03;;;19.10;45.50;;;;;;5019045;28;20440;-39
2021/01/31 11:37:27;;;;;;;2.65;1.88;;;19.10;45.50;;;;;;5024615;28;20099;-39
2021/01/31 11:39:54;;;;;;;3.70;2.28;;;19.10;45.50;;;;;;5023905;28;20211;-39
2021/01/31 11:42:20;;;;;;;3.15;2.40;;;19.10;45.50;;;;;;5022432;28;20061;-39
2021/01/31 11:44:47;;;;;;;2.50;1.90;;;19.10;45.50;;;;;;5028897;28;20145;-39
2021/01/31 11:47:13;;;;;;;2.00;1.60;;;19.10;45.50;;;;;;5023436;28;20042;-40
2021/01/31 11:49:40;;;;;;;2.45;1.92;;;19.10;45.50;;;;;;5022092;28;20046;-40
2021/01/31 11:52:07;;;;;;;2.28;1.88;;;19.10;45.50;;;;;;5024692;28;20049;-39
2021/01/31 11:54:33;;;;;;;2.47;2.17;;;19.10;45.50;;;;;;5030307;28;20379;-39
2021/01/31 11:57:00;;;;;;;3.08;2.15;;;19.10;45.50;;;;;;5016356;28;20501;-39
2021/01/31 11:59:27;;;;;;;3.17;2.28;;;19.10;45.50;;;;;;5028986;28;20052;-39
2021/01/31 12:01:54;;;;;;;2.53;1.98;;;19.10;45.50;;;;;;5020797;28;20048;-39
2021/01/31 12:04:21;;;;;;;2.40;2.05;;;19.10;45.50;;;;;;5028329;28;20084;-39
2021/01/31 12:06:47;;;;;;;2.42;2.13;;;19.10;45.50;;;;;;5020041;28;20103;-39
2021/01/31 12:09:14;;;;;;;2.40;1.92;;;19.10;45.50;;;;;;5029087;28;20053;-39
2021/01/31 12:11:41;;;;;;;2.13;1.80;;;19.10;45.50;;;;;;5028649;28;20049;-39
2021/01/31 12:14:07;;;;;;;2.65;2.10;;;19.10;45.50;;;;;;5024466;28;20046;-39
2021/01/31 12:16:34;;;;;;;2.35;1.95;;;19.10;45.50;;;;;;5027312;28;20046;-39
2021/01/31 12:19:01;;;;;;;2.30;1.88;;;19.10;45.50;;;;;;5023799;28;20041;-39
2021/01/31 12:21:27;;;;;;;2.25;2.00;;;19.10;45.50;;;;;;5018761;28;20073;-39
2021/01/31 12:23:54;;;;;;;2.70;2.00;;;19.10;45.50;;;;;;5030984;28;20111;-39
2021/01/31 12:26:21;;;;;;;2.45;1.98;;;19.10;45.50;;;;;;5024530;28;20130;-40
2021/01/31 12:28:47;;;;;;;2.05;1.80;;;19.10;45.50;;;;;;5022128;28;20049;-39
2021/01/31 12:31:14;;;;;;;2.50;2.10;;;19.10;45.50;;;;;;5021739;28;20108;-39
2021/01/31 12:33:42;;;;;;;1.90;1.67;;;19.10;45.50;;;;;;5018482;28;20615;-39
2021/01/31 12:36:09;;;;;;;2.47;2.10;;;19.10;45.50;;;;;;5021428;28;20129;-39
2021/01/31 12:38:36;;;;;;;2.67;2.08;;;19.10;45.50;;;;;;5024981;28;20041;-40
2021/01/31 12:41:03;;;;;;;2.35;1.98;;;19.10;45.50;;;;;;5023384;28;20044;-39
2021/01/31 12:43:29;;;;;;;2.42;1.98;;;19.10;45.50;;;;;;5030218;28;20449;-40
2021/01/31 12:45:56;;;;;;;2.67;2.10;;;19.10;45.50;;;;;;5019953;28;20081;-39
2021/01/31 12:48:23;;;;;;;2.67;2.17;;;19.10;45.50;;;;;;5015903;28;20049;-40
2021/01/31 12:50:49;;;;;;;2.75;1.80;;;19.10;45.50;;;;;;5031568;28;20444;-39
2021/01/31 12:53:16;;;;;;;3.13;2.20;;;19.10;45.50;;;;;;5020022;28;20096;-39
2021/01/31 12:55:43;;;;;;;2.40;2.13;;;19.10;45.50;;;;;;5025124;28;20104;-40
2021/01/31 12:58:09;;;;;;;2.42;2.00;;;19.10;45.50;;;;;;5025924;28;20099;-40
2021/01/31 13:00:36;;;;;;;2.95;1.83;;;19.10;45.50;;;;;;5018781;28;20092;-39
2021/01/31 13:03:03;;;;;;;3.42;2.40;;;19.10;46.10;;;;;;5014400;28;20049;-39
2021/01/31 13:05:32;;;;;;;2.60;2.00;;;19.10;45.50;;;;;;5024598;28;20053;-40
2021/01/31 13:08:02;;;;;;;2.53;2.08;;;19.10;45.50;;;;;;5019104;28;20045;-39
2021/01/31 13:10:29;;;;;;;2.80;1.92;;;19.10;45.50;;;;;;5022734;28;20079;-39
2021/01/31 13:12:57;;;;;;;3.00;2.00;;;19.10;45.50;;;;;;5025651;28;20049;-39
2021/01/31 13:15:25;;;;;;;2.33;1.95;;;19.10;45.50;;;;;;5041327;28;20045;-39
2021/01/31 13:17:56;;;;;;;2.65;2.13;;;19.10;45.50;;;;;;5029822;28;20073;-39
2021/01/31 13:20:23;;;;;;;2.70;2.10;;;19.10;45.50;;;;;;5030120;28;20408;-39
2021/01/31 13:22:50;;;;;;;2.72;1.90;;;19.10;45.50;;;;;;5024826;28;20057;-39
2021/01/31 13:25:17;;;;;;;2.25;1.92;;;19.10;45.50;;;;;;5024910;28;20112;-39